createdAt,value
2023-01-28T00:01:07.887Z,7.22
2023-01-28T00:03:09.525Z,8.77
2023-01-28T00:05:11.194Z,8.50
2023-01-28T00:07:12.968Z,8.40
2023-01-28T00:09:14.729Z,8.98
2023-01-28T00:11:16.299Z,8.05
2023-01-28T00:13:17.886Z,7.82
2023-01-28T00:15:19.455Z,8.32
2023-01-28T00:17:21.047Z,7.85
2023-01-28T00:19:23.522Z,9.27
2023-01-28T00:21:25.121Z,8.43
2023-01-28T00:23:28.517Z,9.10
2023-01-28T00:25:31.192Z,7.97
2023-01-28T00:27:32.924Z,8.40
2023-01-28T00:29:34.456Z,8.65
2023-01-28T00:31:38.001Z,8.90
2023-01-28T00:33:39.971Z,8.38
2023-01-28T00:35:41.668Z,8.25
2023-01-28T00:37:46.280Z,8.35
2023-01-28T00:39:47.881Z,8.60
2023-01-28T00:41:49.492Z,8.25
2023-01-28T00:43:51.856Z,7.50
2023-01-28T00:45:53.429Z,8.35
2023-01-28T00:47:55.101Z,9.25
2023-01-28T00:49:56.998Z,8.35
2023-01-28T00:51:58.594Z,9.05
2023-01-28T00:54:00.195Z,8.55
2023-01-28T00:56:02.727Z,9.13
2023-01-28T00:58:04.312Z,10.48
2023-01-28T01:00:06.792Z,9.77
2023-01-28T01:02:14.211Z,9.80
2023-01-28T01:04:26.894Z,9.35
2023-01-28T01:06:31.161Z,9.23
2023-01-28T01:08:35.976Z,8.50
2023-01-28T01:10:38.605Z,9.57
2023-01-28T01:12:40.435Z,8.85
2023-01-28T01:14:42.096Z,9.23
2023-01-28T01:16:43.658Z,8.60
2023-01-28T01:18:45.417Z,9.88
2023-01-28T01:20:47.016Z,9.40
2023-01-28T01:22:48.896Z,9.18
2023-01-28T01:24:50.467Z,8.65
2023-01-28T01:26:52.327Z,9.15
2023-01-28T01:28:54.210Z,8.05
2023-01-28T01:31:09.311Z,10.55
2023-01-28T01:33:10.880Z,9.63
2023-01-28T01:35:12.806Z,9.43
2023-01-28T01:37:15.019Z,10.20
2023-01-28T01:39:16.861Z,9.02
2023-01-28T01:41:27.864Z,8.80
2023-01-28T01:43:48.852Z,9.48
2023-01-28T01:45:59.730Z,8.57
2023-01-28T01:48:06.360Z,10.73
2023-01-28T01:50:24.597Z,8.80
2023-01-28T01:52:28.790Z,9.10
2023-01-28T01:54:31.067Z,9.35
2023-01-28T01:56:37.211Z,9.75
2023-01-28T01:58:41.595Z,7.82
2023-01-28T02:00:43.501Z,8.57
2023-01-28T02:02:47.920Z,8.52
2023-01-28T02:04:49.633Z,9.05
2023-01-28T02:06:52.320Z,9.75
2023-01-28T02:08:55.866Z,8.20
2023-01-28T02:11:06.311Z,7.97
2023-01-28T02:13:08.178Z,7.97
2023-01-28T02:15:13.934Z,9.35
2023-01-28T02:17:16.269Z,7.60
2023-01-28T02:19:20.082Z,8.70
2023-01-28T02:22:03.255Z,8.73
2023-01-28T02:24:23.531Z,8.80
2023-01-28T02:26:42.473Z,7.75
2023-01-28T02:29:07.114Z,9.43
2023-01-28T02:33:40.947Z,9.25
2023-01-28T02:35:52.995Z,9.57
2023-01-28T02:37:59.643Z,9.30
2023-01-28T02:40:13.849Z,9.35
2023-01-28T02:42:21.825Z,9.23
2023-01-28T02:44:24.125Z,8.18
2023-01-28T02:46:44.014Z,8.90
2023-01-28T02:48:47.024Z,8.52
2023-01-28T02:51:17.081Z,8.77
2023-01-28T02:53:55.645Z,7.60
2023-01-28T02:55:57.211Z,10.30
2023-01-28T02:58:21.816Z,9.40
2023-01-28T03:00:54.509Z,8.15
2023-01-28T03:03:25.857Z,7.85
2023-01-28T03:05:31.871Z,8.80
2023-01-28T03:07:36.053Z,8.48
2023-01-28T03:09:39.812Z,8.07
2023-01-28T03:12:07.700Z,8.77
2023-01-28T03:14:28.526Z,7.88
2023-01-28T03:16:48.762Z,8.43
2023-01-28T03:19:10.874Z,9.07
2023-01-28T03:21:39.328Z,7.63
2023-01-28T03:24:22.812Z,8.57
2023-01-28T03:26:43.597Z,7.93
2023-01-28T03:29:05.707Z,8.77
2023-01-28T03:31:32.578Z,9.30
2023-01-28T03:33:52.998Z,8.13
2023-01-28T03:36:13.160Z,9.68
2023-01-28T03:38:23.007Z,8.77
2023-01-28T03:40:24.669Z,9.68
2023-01-28T03:42:26.264Z,9.27
2023-01-28T03:44:46.755Z,9.00
2023-01-28T03:46:49.057Z,7.82
2023-01-28T03:48:50.788Z,8.18
2023-01-28T03:50:52.787Z,8.90
2023-01-28T03:52:54.424Z,8.93
2023-01-28T03:54:56.539Z,9.40
2023-01-28T03:56:58.144Z,8.35
2023-01-28T03:58:59.738Z,8.63
2023-01-28T04:01:01.422Z,9.40
2023-01-28T04:03:03.275Z,9.43
2023-01-28T04:05:07.121Z,9.30
2023-01-28T04:09:10.712Z,9.35
2023-01-28T04:11:19.957Z,8.10
2023-01-28T04:13:21.824Z,8.10
2023-01-28T04:15:24.137Z,8.40
2023-01-28T04:17:25.803Z,8.40
2023-01-28T04:19:28.257Z,7.88
2023-01-28T04:21:29.942Z,8.02
2023-01-28T04:23:31.751Z,8.32
2023-01-28T04:25:33.503Z,8.38
2023-01-28T04:27:35.197Z,9.40
2023-01-28T04:29:36.864Z,7.97
2023-01-28T04:31:38.607Z,11.07
2023-01-28T04:33:40.235Z,9.68
2023-01-28T04:35:41.874Z,7.35
2023-01-28T04:37:43.849Z,8.60
2023-01-28T04:39:45.421Z,8.57
2023-01-28T04:41:47.036Z,9.02
2023-01-28T04:43:49.325Z,8.90
2023-01-28T04:45:50.995Z,9.00
2023-01-28T04:47:52.559Z,8.27
2023-01-28T04:49:54.346Z,7.30
2023-01-28T04:51:55.962Z,7.80
2023-01-28T04:53:57.514Z,7.65
2023-01-28T04:55:59.390Z,7.30
2023-01-28T04:58:01.000Z,8.73
2023-01-28T05:00:02.640Z,7.97
2023-01-28T05:02:04.332Z,9.07
2023-01-28T05:04:06.087Z,7.72
2023-01-28T05:06:07.900Z,7.57
2023-01-28T05:08:09.518Z,8.10
2023-01-28T05:10:11.299Z,9.43
2023-01-28T05:12:12.945Z,8.40
2023-01-28T05:14:14.573Z,7.97
2023-01-28T05:16:16.203Z,8.88
2023-01-28T05:18:17.798Z,8.23
2023-01-28T05:20:19.394Z,9.52
2023-01-28T05:22:21.008Z,8.75
2023-01-28T05:24:22.727Z,9.50
2023-01-28T05:26:24.581Z,8.15
2023-01-28T05:28:26.131Z,8.90
2023-01-28T05:30:27.851Z,7.50
2023-01-28T05:32:29.474Z,9.10
2023-01-28T05:34:31.105Z,10.02
2023-01-28T05:36:32.812Z,11.25
2023-01-28T05:38:34.462Z,9.23
2023-01-28T05:40:36.055Z,8.32
2023-01-28T05:42:37.709Z,9.15
2023-01-28T05:44:39.572Z,9.77
2023-01-28T05:46:45.419Z,9.48
2023-01-28T05:48:47.007Z,9.68
2023-01-28T05:50:48.697Z,9.02
2023-01-28T05:52:50.309Z,7.88
2023-01-28T05:54:52.038Z,8.20
2023-01-28T05:56:53.578Z,8.77
2023-01-28T05:58:55.133Z,8.45
2023-01-28T06:00:56.758Z,8.13
2023-01-28T06:02:58.428Z,8.85
2023-01-28T06:05:00.580Z,9.75
2023-01-28T06:07:02.254Z,8.48
2023-01-28T06:09:03.982Z,8.88
2023-01-28T06:11:05.632Z,8.40
2023-01-28T06:13:07.214Z,8.00
2023-01-28T06:15:09.451Z,8.43
2023-01-28T06:17:11.103Z,15.15
2023-01-28T06:19:12.724Z,9.95
2023-01-28T06:21:14.382Z,11.95
2023-01-28T06:23:16.123Z,8.77
2023-01-28T06:25:18.294Z,9.82
2023-01-28T06:27:19.967Z,9.90
2023-01-28T06:29:21.617Z,10.35
2023-01-28T06:31:23.275Z,9.35
2023-01-28T06:33:24.942Z,9.85
2023-01-28T06:35:26.680Z,10.90
2023-01-28T06:37:28.300Z,9.43
2023-01-28T06:39:32.907Z,9.65
2023-01-28T06:41:34.593Z,11.20
2023-01-28T06:43:36.234Z,10.15
2023-01-28T06:45:37.885Z,11.00
2023-01-28T06:47:40.070Z,10.18
2023-01-28T06:49:41.884Z,10.50
2023-01-28T06:51:43.535Z,11.35
2023-01-28T06:53:46.193Z,11.73
2023-01-28T06:55:48.041Z,11.38
2023-01-28T06:57:49.669Z,13.18
2023-01-28T06:59:51.291Z,10.40
2023-01-28T07:01:52.977Z,12.25
2023-01-28T07:03:54.600Z,10.32
2023-01-28T07:05:56.217Z,10.52
2023-01-28T07:07:58.045Z,10.52
2023-01-28T07:09:59.662Z,11.32
2023-01-28T07:12:05.273Z,12.10
2023-01-28T07:14:06.972Z,11.00
2023-01-28T07:16:08.674Z,11.05
2023-01-28T07:18:10.275Z,12.00
2023-01-28T07:20:14.863Z,10.93
2023-01-28T07:22:16.724Z,12.18
2023-01-28T07:24:18.621Z,10.60
2023-01-28T07:26:20.258Z,13.70
2023-01-28T07:28:22.033Z,12.27
2023-01-28T07:30:24.319Z,13.82
2023-01-28T07:32:27.548Z,11.45
2023-01-28T07:34:29.201Z,11.90
2023-01-28T07:36:30.831Z,11.13
2023-01-28T07:38:32.388Z,10.20
2023-01-28T07:40:34.036Z,11.75
2023-01-28T07:42:35.652Z,11.90
2023-01-28T07:44:37.573Z,12.95
2023-01-28T07:46:39.231Z,12.43
2023-01-28T07:48:40.791Z,12.90
2023-01-28T07:50:42.463Z,12.70
2023-01-28T07:52:46.955Z,10.60
2023-01-28T07:54:48.658Z,10.90
2023-01-28T07:56:50.316Z,13.10
2023-01-28T07:58:51.935Z,11.25
2023-01-28T08:00:57.171Z,11.57
2023-01-28T08:03:04.527Z,12.35
2023-01-28T08:05:06.788Z,12.50
2023-01-28T08:07:08.662Z,12.73
2023-01-28T08:09:10.304Z,11.95
2023-01-28T08:11:12.204Z,12.60
2023-01-28T08:13:14.624Z,11.00
2023-01-28T08:15:16.367Z,12.18
2023-01-28T08:17:18.025Z,13.32
2023-01-28T08:19:21.858Z,11.45
2023-01-28T08:23:30.377Z,12.80
2023-01-28T08:25:32.068Z,11.05
2023-01-28T08:27:33.699Z,12.68
2023-01-28T08:29:35.248Z,13.05
2023-01-28T08:31:36.910Z,11.10
2023-01-28T08:33:38.598Z,24.73
2023-01-28T08:35:40.252Z,13.80
2023-01-28T08:37:41.827Z,10.77
2023-01-28T08:39:45.551Z,9.98
2023-01-28T08:41:47.884Z,12.75
2023-01-28T08:43:49.802Z,12.55
2023-01-28T08:45:51.530Z,11.18
2023-01-28T08:48:00.872Z,10.15
2023-01-28T08:50:02.553Z,10.25
2023-01-28T08:52:04.266Z,10.18
2023-01-28T08:54:05.905Z,9.57
2023-01-28T08:56:07.870Z,8.95
2023-01-28T08:58:17.131Z,8.07
2023-01-28T09:00:19.776Z,10.63
2023-01-28T09:02:31.021Z,11.20
2023-01-28T09:04:33.688Z,10.15
2023-01-28T09:06:35.406Z,10.55
2023-01-28T09:08:37.117Z,9.43
2023-01-28T09:10:39.248Z,10.95
2023-01-28T09:12:40.849Z,11.02
2023-01-28T09:14:42.647Z,10.00
2023-01-28T09:16:44.302Z,12.35
2023-01-28T09:18:46.116Z,9.85
2023-01-28T09:20:47.778Z,14.00
2023-01-28T09:22:49.374Z,11.30
2023-01-28T09:24:50.998Z,10.95
2023-01-28T09:26:52.635Z,13.93
2023-01-28T09:28:54.260Z,14.63
2023-01-28T09:31:07.353Z,9.73
2023-01-28T09:33:09.201Z,10.95
2023-01-28T09:35:11.876Z,11.20
2023-01-28T09:37:13.527Z,10.18
2023-01-28T09:39:15.111Z,11.52
2023-01-28T09:41:54.098Z,11.18
2023-01-28T09:44:28.179Z,10.80
2023-01-28T09:46:33.740Z,12.05
2023-01-28T09:48:39.303Z,10.45
2023-01-28T09:50:44.393Z,10.38
2023-01-28T09:52:45.966Z,10.55
2023-01-28T09:54:55.471Z,11.80
2023-01-28T09:57:07.197Z,11.48
2023-01-28T09:59:20.665Z,11.68
2023-01-28T10:02:00.956Z,11.48
2023-01-28T10:04:32.047Z,14.52
2023-01-28T10:06:49.704Z,10.70
2023-01-28T10:08:56.989Z,11.30
2023-01-28T10:11:20.176Z,12.85
2023-01-28T10:13:30.927Z,12.98
2023-01-28T10:15:53.860Z,15.70
2023-01-28T10:18:16.176Z,18.27
2023-01-28T10:20:27.184Z,17.45
2023-01-28T10:23:01.593Z,16.10
2023-01-28T10:25:07.679Z,20.70
2023-01-28T10:27:19.565Z,22.30
2023-01-28T10:29:26.235Z,25.20
2023-01-28T10:31:32.999Z,20.08
2023-01-28T10:33:40.034Z,16.70
2023-01-28T10:35:42.164Z,14.40
2023-01-28T10:37:44.112Z,12.65
2023-01-28T10:39:45.916Z,14.48
2023-01-28T10:41:57.336Z,12.55
2023-01-28T10:44:00.113Z,11.98
2023-01-28T10:46:16.877Z,14.00
2023-01-28T10:48:24.560Z,11.15
2023-01-28T10:50:29.030Z,14.02
2023-01-28T10:52:30.681Z,13.63
2023-01-28T10:54:32.251Z,13.80
2023-01-28T10:56:36.040Z,13.10
2023-01-28T11:00:58.215Z,12.98
2023-01-28T11:03:00.136Z,10.93
2023-01-28T11:05:21.130Z,12.57
2023-01-28T11:07:22.833Z,11.82
2023-01-28T11:09:30.854Z,11.85
2023-01-28T11:11:32.468Z,11.90
2023-01-28T11:13:34.062Z,11.73
2023-01-28T11:15:35.649Z,11.30
2023-01-28T11:17:38.809Z,11.02
2023-01-28T11:19:40.499Z,10.65
2023-01-28T11:21:49.246Z,13.40
2023-01-28T11:23:53.009Z,12.32
2023-01-28T11:26:02.139Z,10.93
2023-01-28T11:28:07.071Z,9.43
2023-01-28T11:30:22.902Z,10.60
2023-01-28T11:32:26.287Z,10.10
2023-01-28T11:34:30.775Z,12.18
2023-01-28T11:36:33.950Z,11.70
2023-01-28T11:38:35.657Z,12.27
2023-01-28T11:40:37.281Z,12.35
2023-01-28T11:42:38.916Z,12.15
2023-01-28T11:44:40.735Z,11.45
2023-01-28T11:47:19.842Z,10.23
2023-01-28T11:49:47.357Z,11.05
2023-01-28T11:52:02.120Z,12.45
2023-01-28T11:54:31.702Z,11.48
2023-01-28T11:57:01.444Z,11.77
2023-01-28T11:59:36.828Z,9.55
2023-01-28T12:01:57.718Z,9.82
2023-01-28T12:04:04.169Z,10.60
2023-01-28T12:06:43.176Z,12.93
2023-01-28T12:09:22.182Z,10.70
2023-01-28T12:12:11.471Z,11.50
2023-01-28T12:14:18.790Z,11.60
2023-01-28T12:16:30.041Z,11.48
2023-01-28T12:18:50.251Z,9.65
2023-01-28T12:21:49.054Z,11.52
2023-01-28T12:24:13.626Z,11.43
2023-01-28T12:26:31.426Z,10.52
2023-01-28T12:28:44.766Z,11.93
2023-01-28T12:30:59.050Z,12.10
2023-01-28T12:35:23.788Z,9.32
2023-01-28T12:37:45.872Z,11.40
2023-01-28T12:40:06.987Z,11.40
2023-01-28T12:42:20.676Z,11.05
2023-01-28T12:44:31.324Z,11.75
2023-01-28T12:46:41.480Z,13.13
2023-01-28T12:48:48.044Z,13.95
2023-01-28T12:51:16.104Z,12.65
2023-01-28T12:53:35.988Z,16.95
2023-01-28T12:55:41.677Z,14.07
2023-01-28T12:57:44.085Z,14.57
2023-01-28T12:59:46.451Z,13.00
2023-01-28T13:02:12.225Z,13.82
2023-01-28T13:04:18.031Z,12.20
2023-01-28T13:06:42.297Z,11.55
2023-01-28T13:08:43.919Z,13.57
2023-01-28T13:10:46.468Z,11.48
2023-01-28T13:12:48.642Z,14.05
2023-01-28T13:14:52.667Z,12.43
2023-01-28T13:16:55.669Z,12.10
2023-01-28T13:19:23.839Z,15.50
2023-01-28T13:21:25.447Z,12.15
2023-01-28T13:23:36.646Z,13.23
2023-01-28T13:25:49.604Z,17.60
2023-01-28T13:28:02.115Z,13.65
2023-01-28T13:30:26.206Z,13.25
2023-01-28T13:32:31.142Z,17.90
2023-01-28T13:34:44.128Z,16.38
2023-01-28T13:36:47.389Z,20.63
2023-01-28T13:38:49.670Z,18.73
2023-01-28T13:41:06.402Z,17.58
2023-01-28T13:43:38.682Z,16.77
2023-01-28T13:45:40.370Z,15.88
2023-01-28T13:47:46.122Z,13.35
2023-01-28T13:49:50.118Z,14.73
2023-01-28T13:52:10.607Z,12.88
2023-01-28T13:54:17.927Z,15.25
2023-01-28T13:56:26.158Z,15.82
2023-01-28T13:58:46.141Z,12.65
2023-01-28T14:00:56.476Z,14.18
2023-01-28T14:03:25.488Z,12.88
2023-01-28T14:05:55.327Z,15.57
2023-01-28T14:08:21.277Z,13.80
2023-01-28T14:10:41.890Z,13.32
2023-01-28T14:12:49.999Z,15.15
2023-01-28T14:15:12.481Z,12.60
2023-01-28T14:17:45.221Z,13.77
2023-01-28T14:19:47.197Z,12.95
2023-01-28T14:21:48.896Z,14.55
2023-01-28T14:23:55.626Z,15.48
2023-01-28T14:26:06.091Z,13.68
2023-01-28T14:28:09.972Z,15.90
2023-01-28T14:32:34.806Z,27.83
2023-01-28T14:34:36.872Z,17.23
2023-01-28T14:36:44.319Z,15.15
2023-01-28T14:38:46.758Z,14.60
2023-01-28T14:40:55.841Z,14.27
2023-01-28T14:42:58.261Z,14.98
2023-01-28T14:45:15.371Z,14.02
2023-01-28T14:47:28.875Z,15.07
2023-01-28T14:50:08.722Z,15.25
2023-01-28T14:52:31.779Z,17.65
2023-01-28T14:54:36.244Z,18.52
2023-01-28T14:57:17.114Z,18.08
2023-01-28T14:59:21.121Z,21.27
2023-01-28T15:01:28.069Z,19.42
2023-01-28T15:03:30.478Z,35.03
2023-01-28T15:05:32.173Z,32.70
2023-01-28T15:07:33.861Z,27.70
2023-01-28T15:09:35.461Z,26.85
2023-01-28T15:11:39.831Z,33.33
2023-01-28T15:13:46.869Z,28.38
2023-01-28T15:15:52.165Z,25.42
2023-01-28T15:17:54.421Z,21.90
2023-01-28T15:19:57.446Z,18.30
2023-01-28T15:22:01.593Z,17.83
2023-01-28T15:24:03.565Z,16.80
2023-01-28T15:26:06.928Z,16.95
2023-01-28T15:28:24.555Z,13.57
2023-01-28T15:30:28.953Z,13.02
2023-01-28T15:32:31.344Z,15.27
2023-01-28T15:34:32.900Z,13.10
2023-01-28T15:36:34.800Z,13.98
2023-01-28T15:38:36.410Z,12.48
2023-01-28T15:40:42.598Z,13.82
2023-01-28T15:42:45.905Z,14.43
2023-01-28T15:44:48.571Z,13.02
2023-01-28T15:46:50.186Z,13.30
2023-01-28T15:49:03.175Z,12.65
2023-01-28T15:51:06.714Z,13.35
2023-01-28T15:53:09.452Z,12.13
2023-01-28T15:55:29.798Z,13.90
2023-01-28T15:57:33.559Z,16.50
2023-01-28T15:59:35.161Z,12.73
2023-01-28T16:01:36.741Z,14.07
2023-01-28T16:03:42.131Z,12.77
2023-01-28T16:06:00.127Z,13.40
2023-01-28T16:08:09.883Z,15.27
2023-01-28T16:10:22.032Z,13.43
2023-01-28T16:12:24.056Z,15.05
2023-01-28T16:14:30.432Z,12.88
2023-01-28T16:16:36.868Z,15.02
2023-01-28T16:18:43.567Z,14.27
2023-01-28T16:20:48.351Z,14.43
2023-01-28T16:22:50.552Z,13.57
2023-01-28T16:24:53.457Z,14.45
2023-01-28T16:27:07.238Z,13.13
2023-01-28T16:29:17.181Z,15.52
2023-01-28T16:31:19.697Z,12.50
2023-01-28T16:33:22.346Z,13.75
2023-01-28T16:35:38.152Z,12.05
2023-01-28T16:37:49.660Z,11.82
2023-01-28T16:39:51.307Z,11.82
2023-01-28T16:41:53.666Z,10.50
2023-01-28T16:43:55.295Z,11.95
2023-01-28T16:45:56.856Z,11.27
2023-01-28T16:47:58.590Z,11.27
2023-01-28T16:50:00.303Z,13.20
2023-01-28T16:52:02.670Z,12.77
2023-01-28T16:54:05.127Z,13.15
2023-01-28T16:56:08.320Z,13.52
2023-01-28T16:58:12.844Z,13.73
2023-01-28T17:00:19.199Z,14.10
2023-01-28T17:02:20.786Z,15.05
2023-01-28T17:04:22.502Z,16.83
2023-01-28T17:06:24.058Z,17.80
2023-01-28T17:08:25.861Z,17.45
2023-01-28T17:10:27.450Z,15.32
2023-01-28T17:12:29.064Z,13.80
2023-01-28T17:14:30.701Z,13.48
2023-01-28T17:16:32.299Z,16.77
2023-01-28T17:18:33.953Z,17.52
2023-01-28T17:20:40.216Z,16.95
2023-01-28T17:22:41.921Z,15.02
2023-01-28T17:24:43.519Z,13.88
2023-01-28T17:26:45.096Z,14.25
2023-01-28T17:28:52.832Z,15.13
2023-01-28T17:30:54.463Z,14.82
2023-01-28T17:32:56.052Z,12.07
2023-01-28T17:34:57.731Z,12.20
2023-01-28T17:36:59.360Z,12.10
2023-01-28T17:39:00.951Z,17.60
2023-01-28T17:41:07.489Z,18.33
2023-01-28T17:43:09.112Z,21.83
2023-01-28T17:45:10.800Z,22.13
2023-01-28T17:47:12.392Z,23.75
2023-01-28T17:49:14.166Z,23.30
2023-01-28T17:51:19.084Z,27.90
2023-01-28T17:53:20.781Z,24.95
2023-01-28T17:55:23.570Z,22.95
2023-01-28T17:57:25.363Z,26.30
2023-01-28T17:59:27.014Z,31.63
2023-01-28T18:01:28.805Z,22.55
2023-01-28T18:03:30.348Z,27.02
2023-01-28T18:05:31.980Z,20.63
2023-01-28T18:07:33.766Z,20.23
2023-01-28T18:09:35.331Z,22.00
2023-01-28T18:11:37.174Z,16.77
2023-01-28T18:13:39.667Z,16.05
2023-01-28T18:15:41.225Z,14.90
2023-01-28T18:17:42.980Z,18.52
2023-01-28T18:19:44.583Z,16.63
2023-01-28T18:21:53.054Z,18.45
2023-01-28T18:23:55.260Z,23.25
2023-01-28T18:25:58.327Z,21.23
2023-01-28T18:27:59.974Z,20.58
2023-01-28T18:30:01.627Z,22.45
2023-01-28T18:32:04.573Z,21.45
2023-01-28T18:34:06.160Z,24.67
2023-01-28T18:36:09.164Z,23.10
2023-01-28T18:38:11.607Z,22.93
2023-01-28T18:40:13.555Z,21.83
2023-01-28T18:42:15.362Z,24.25
2023-01-28T18:44:16.997Z,22.92
2023-01-28T18:46:18.789Z,22.35
2023-01-28T18:48:20.676Z,22.33
2023-01-28T18:50:22.284Z,21.73
2023-01-28T18:52:23.893Z,21.02
2023-01-28T18:54:25.730Z,17.42
2023-01-28T18:56:28.590Z,17.77
2023-01-28T18:58:30.660Z,17.50
2023-01-28T19:00:32.497Z,17.77
2023-01-28T19:02:34.167Z,16.38
2023-01-28T19:04:35.841Z,16.25
2023-01-28T19:06:37.637Z,17.55
2023-01-28T19:08:39.217Z,13.70
2023-01-28T19:10:41.026Z,13.88
2023-01-28T19:12:42.584Z,15.38
2023-01-28T19:14:44.187Z,17.38
2023-01-28T19:16:46.014Z,15.68
2023-01-28T19:18:55.586Z,16.25
2023-01-28T19:21:05.945Z,16.30
2023-01-28T19:23:07.997Z,18.10
2023-01-28T19:25:10.083Z,17.13
2023-01-28T19:27:11.710Z,16.05
2023-01-28T19:29:15.945Z,16.92
2023-01-28T19:31:19.307Z,14.75
2023-01-28T19:33:20.898Z,14.05
2023-01-28T19:35:24.248Z,14.88
2023-01-28T19:37:25.811Z,14.35
2023-01-28T19:39:27.471Z,15.60
2023-01-28T19:41:29.392Z,16.38
2023-01-28T19:43:31.139Z,14.23
2023-01-28T19:45:32.727Z,13.60
2023-01-28T19:47:34.358Z,13.95
2023-01-28T19:49:35.952Z,14.40
2023-01-28T19:51:37.572Z,15.32
2023-01-28T19:53:40.500Z,14.60
2023-01-28T19:55:42.332Z,15.00
2023-01-28T19:57:44.805Z,13.90
2023-01-28T19:59:46.502Z,14.65
2023-01-28T20:01:48.087Z,13.18
2023-01-28T20:03:55.285Z,14.18
2023-01-28T20:06:00.726Z,13.90
2023-01-28T20:08:02.607Z,16.65
2023-01-28T20:10:04.481Z,12.57
2023-01-28T20:12:06.291Z,14.45
2023-01-28T20:14:08.119Z,15.85
2023-01-28T20:16:31.517Z,14.30
2023-01-28T20:18:33.786Z,15.40
2023-01-28T20:20:35.434Z,16.02
2023-01-28T20:22:39.635Z,13.88
2023-01-28T20:24:41.299Z,15.70
2023-01-28T20:26:43.805Z,15.52
2023-01-28T20:28:45.333Z,13.43
2023-01-28T20:30:47.156Z,12.95
2023-01-28T20:32:48.795Z,14.02
2023-01-28T20:34:52.024Z,13.43
2023-01-28T20:36:53.585Z,13.45
2023-01-28T20:38:55.335Z,16.50
2023-01-28T20:40:56.979Z,14.40
2023-01-28T20:42:58.641Z,14.38
2023-01-28T20:45:00.211Z,15.50
2023-01-28T20:47:02.657Z,15.27
2023-01-28T20:49:06.752Z,14.98
2023-01-28T20:51:13.731Z,14.48
2023-01-28T20:53:15.314Z,13.52
2023-01-28T20:55:17.023Z,15.88
2023-01-28T20:57:18.656Z,16.20
2023-01-28T20:59:20.605Z,14.57
2023-01-28T21:01:27.732Z,13.13
2023-01-28T21:03:29.362Z,14.88
2023-01-28T21:05:30.977Z,16.92
2023-01-28T21:07:32.713Z,13.13
2023-01-28T21:09:34.276Z,15.68
2023-01-28T21:11:35.954Z,18.23
2023-01-28T21:13:37.592Z,16.25
2023-01-28T21:15:39.292Z,12.85
2023-01-28T21:17:41.052Z,15.70
2023-01-28T21:19:42.825Z,14.85
2023-01-28T21:21:45.194Z,15.57
2023-01-28T21:23:47.232Z,16.00
2023-01-28T21:25:51.051Z,15.35
2023-01-28T21:27:53.995Z,15.63
2023-01-28T21:29:55.633Z,17.40
2023-01-28T21:31:57.281Z,17.27
2023-01-28T21:34:01.296Z,15.63
2023-01-28T21:36:09.250Z,18.23
2023-01-28T21:38:11.602Z,16.67
2023-01-28T21:40:13.491Z,18.90
2023-01-28T21:42:15.835Z,18.80
2023-01-28T21:44:17.525Z,17.77
2023-01-28T21:46:23.349Z,16.35
2023-01-28T21:48:25.718Z,18.25
2023-01-28T21:50:27.545Z,19.02
2023-01-28T21:52:29.104Z,16.38
2023-01-28T21:54:30.772Z,19.10
2023-01-28T21:56:32.774Z,16.08
2023-01-28T21:58:54.659Z,16.05
2023-01-28T22:00:56.286Z,17.05
2023-01-28T22:02:58.006Z,17.30
2023-01-28T22:04:59.574Z,16.42
2023-01-28T22:07:02.790Z,18.60
2023-01-28T22:09:04.624Z,17.27
2023-01-28T22:11:07.585Z,15.23
2023-01-28T22:13:09.215Z,15.90
2023-01-28T22:15:11.042Z,19.05
2023-01-28T22:17:12.763Z,18.40
2023-01-28T22:19:14.720Z,15.80
2023-01-28T22:21:16.426Z,15.25
2023-01-28T22:23:18.012Z,17.15
2023-01-28T22:25:19.649Z,18.75
2023-01-28T22:27:21.309Z,18.08
2023-01-28T22:29:23.899Z,19.10
2023-01-28T22:31:25.706Z,16.85
2023-01-28T22:33:27.306Z,15.65
2023-01-28T22:35:28.976Z,17.90
2023-01-28T22:37:31.501Z,17.55
2023-01-28T22:39:33.226Z,16.92
2023-01-28T22:41:34.961Z,16.80
2023-01-28T22:43:36.788Z,17.13
2023-01-28T22:45:38.435Z,15.55
2023-01-28T22:47:39.966Z,15.00
2023-01-28T22:49:41.600Z,14.50
2023-01-28T22:51:43.244Z,16.02
2023-01-28T22:53:45.627Z,15.75
2023-01-28T22:55:51.313Z,17.38
2023-01-28T22:57:52.972Z,15.57
2023-01-28T23:00:00.520Z,16.67
2023-01-28T23:02:02.441Z,17.25
2023-01-28T23:04:04.098Z,15.73
2023-01-28T23:06:05.893Z,16.00
2023-01-28T23:08:10.864Z,17.70
2023-01-28T23:10:12.620Z,17.38
2023-01-28T23:12:14.219Z,15.05
2023-01-28T23:14:34.192Z,17.65
2023-01-28T23:16:54.233Z,14.50
2023-01-28T23:19:14.341Z,14.65
2023-01-28T23:21:39.285Z,15.80
2023-01-28T23:23:59.445Z,15.68
2023-01-28T23:26:01.235Z,16.40
2023-01-28T23:28:02.805Z,15.68
2023-01-28T23:30:05.825Z,16.88
2023-01-28T23:32:09.978Z,15.07
2023-01-28T23:34:11.787Z,15.95
2023-01-28T23:36:13.355Z,15.60
2023-01-28T23:38:15.335Z,15.35
2023-01-28T23:40:17.518Z,17.90
2023-01-28T23:42:20.997Z,18.15
2023-01-28T23:44:26.545Z,18.73
2023-01-28T23:46:38.920Z,18.00
2023-01-28T23:48:42.396Z,18.98
2023-01-28T23:50:43.999Z,17.42
2023-01-28T23:52:45.613Z,19.83
2023-01-28T23:54:47.261Z,17.92
2023-01-28T23:56:48.997Z,17.33
2023-01-28T23:58:50.828Z,17.27
